Time;durP1;ratioP1;P1;durP2;ratioP2;P2;SDS_P1;SDS_P2;PMS_P1;PMS_P2;Temp;Humidity;BMP_temperature;BMP_pressure;BME280_temperature;BME280_humidity;BME280_pressure;Samples;Min_cycle;Max_cycle;Signal;HPM_P1;HPM_P2
2022/06/21 00:00:15;;;;;;;5.13;2.00;;;11.00;99.90;;;;;;5052645;28;20642;-70
2022/06/21 00:02:41;;;;;;;4.18;1.70;;;11.00;99.90;;;;;;5035753;28;20501;-70
2022/06/21 00:05:17;;;;;;;6.90;2.15;;;10.90;99.90;;;;;;5052032;28;20498;-70
2022/06/21 00:07:43;;;;;;;5.90;1.80;;;10.80;99.90;;;;;;5052655;28;20040;-70
2022/06/21 00:10:18;;;;;;;6.53;1.70;;;10.80;99.90;;;;;;5052212;28;20102;-70
2022/06/21 00:12:47;;;;;;;4.32;1.50;;;10.80;99.90;;;;;;5052339;28;20037;-70
2022/06/21 00:15:13;;;;;;;3.35;1.58;;;10.70;99.90;;;;;;5069035;28;20033;-70
2022/06/21 00:17:43;;;;;;;4.72;1.95;;;10.70;99.90;;;;;;5051954;28;20079;-70
2022/06/21 00:20:13;;;;;;;5.00;2.08;;;10.60;99.90;;;;;;5052647;28;20029;-70
2022/06/21 00:22:39;;;;;;;3.55;1.60;;;10.60;99.90;;;;;;5052120;28;20033;-70
2022/06/21 00:25:26;;;;;;;4.82;1.90;;;10.50;99.90;;;;;;5035531;28;20098;-70
2022/06/21 00:27:53;;;;;;;8.15;2.30;;;10.50;99.90;;;;;;5035701;28;20389;-70
2022/06/21 00:30:20;;;;;;;5.05;2.28;;;10.50;99.90;;;;;;5052107;28;20040;-69
2022/06/21 00:32:48;;;;;;;3.97;1.60;;;10.40;99.90;;;;;;5035376;28;20098;-69
2022/06/21 00:35:17;;;;;;;5.20;1.80;;;10.40;99.90;;;;;;5052190;28;20086;-69
2022/06/21 00:37:44;;;;;;;3.70;1.95;;;10.40;99.90;;;;;;5052314;28;20080;-69
2022/06/21 00:40:22;;;;;;;5.78;2.00;;;10.40;99.90;;;;;;5052090;28;20077;-71
2022/06/21 00:42:59;;;;;;;10.02;1.88;;;10.40;99.90;;;;;;5052022;28;20052;-70
2022/06/21 00:45:33;;;;;;;6.45;1.90;;;10.30;99.90;;;;;;5052045;28;20532;-70
2022/06/21 00:48:08;;;;;;;5.95;1.77;;;10.30;99.90;;;;;;5051890;28;20036;-70
2022/06/21 00:50:37;;;;;;;5.03;2.05;;;10.30;99.90;;;;;;5052025;28;20044;-70
2022/06/21 00:53:16;;;;;;;4.68;2.10;;;10.20;99.90;;;;;;5035400;28;20436;-70
2022/06/21 00:55:45;;;;;;;5.20;2.15;;;10.10;99.90;;;;;;5052220;28;20044;-70
2022/06/21 00:58:13;;;;;;;5.18;2.00;;;10.10;99.90;;;;;;5051993;28;20051;-70
2022/06/21 01:01:01;;;;;;;4.13;1.98;;;10.10;99.90;;;;;;5051862;28;20498;-70
2022/06/21 01:03:37;;;;;;;4.38;1.90;;;10.00;99.90;;;;;;5051736;28;20280;-69
2022/06/21 01:06:08;;;;;;;3.40;1.60;;;10.00;99.90;;;;;;5051857;28;20079;-70
2022/06/21 01:08:39;;;;;;;4.10;1.60;;;10.00;99.90;;;;;;5051827;28;20375;-70
2022/06/21 01:11:11;;;;;;;5.43;1.77;;;10.00;99.90;;;;;;5051834;28;20044;-70
2022/06/21 01:13:40;;;;;;;3.28;1.80;;;10.00;99.90;;;;;;5051999;28;20045;-70
2022/06/21 01:16:07;;;;;;;3.15;2.03;;;9.90;99.90;;;;;;5037720;28;20055;-70
2022/06/21 01:18:33;;;;;;;3.90;1.70;;;9.80;99.90;;;;;;5038719;28;20040;-70
2022/06/21 01:21:00;;;;;;;4.50;2.22;;;9.70;99.90;;;;;;5055367;28;20044;-70
2022/06/21 01:23:44;;;;;;;3.67;2.20;;;9.70;99.90;;;;;;5038761;28;20390;-69
2022/06/21 01:26:32;;;;;;;2.53;1.55;;;9.60;99.90;;;;;;5038682;28;20048;-70
2022/06/21 01:28:59;;;;;;;2.90;1.50;;;9.60;99.90;;;;;;5055078;28;20076;-69
2022/06/21 01:31:26;;;;;;;2.92;1.25;;;9.60;99.90;;;;;;5055136;28;20486;-70
2022/06/21 01:33:52;;;;;;;2.88;1.73;;;9.60;99.90;;;;;;5055055;28;20040;-69
2022/06/21 01:36:22;;;;;;;2.90;1.52;;;9.60;99.90;;;;;;5055086;28;20032;-69
2022/06/21 01:39:00;;;;;;;1.73;1.40;;;9.50;99.90;;;;;;5054909;28;20048;-69
2022/06/21 01:42:06;;;;;;;1.80;1.38;;;9.50;99.90;;;;;;5055141;28;20044;-70
2022/06/21 01:44:45;;;;;;;3.80;1.73;;;9.50;99.90;;;;;;5054285;28;20060;-70
2022/06/21 01:47:16;;;;;;;1.73;1.20;;;9.50;99.90;;;;;;5055004;28;20113;-70
2022/06/21 01:49:51;;;;;;;1.92;1.30;;;9.50;99.90;;;;;;5054640;28;20024;-70
2022/06/21 01:52:23;;;;;;;1.85;1.40;;;9.50;99.90;;;;;;5038146;28;20056;-70
2022/06/21 01:55:11;;;;;;;3.00;1.52;;;9.50;99.90;;;;;;5038326;28;20045;-70
2022/06/21 01:57:38;;;;;;;4.15;1.92;;;9.50;99.90;;;;;;5038172;28;20047;-70
2022/06/21 02:00:05;;;;;;;2.13;1.50;;;9.50;99.90;;;;;;5038061;28;20139;-70
2022/06/21 02:02:46;;;;;;;3.05;1.80;;;9.50;99.90;;;;;;5038042;28;20468;-70
2022/06/21 02:05:22;;;;;;;8.93;1.88;;;9.50;99.90;;;;;;5054620;28;20056;-70
2022/06/21 02:07:58;;;;;;;3.45;1.67;;;9.40;99.90;;;;;;5054652;28;20473;-70
2022/06/21 02:10:30;;;;;;;2.33;1.40;;;9.40;99.90;;;;;;5054383;28;20098;-70
2022/06/21 02:13:11;;;;;;;2.28;1.77;;;9.40;99.90;;;;;;5054302;28;20036;-70
2022/06/21 02:15:47;;;;;;;2.15;1.50;;;9.30;99.90;;;;;;5054773;28;20074;-69
2022/06/21 02:18:15;;;;;;;2.03;1.55;;;9.30;99.90;;;;;;5054154;28;20036;-70
2022/06/21 02:20:47;;;;;;;3.63;1.60;;;9.30;99.90;;;;;;5037809;28;20123;-70
2022/06/21 02:23:15;;;;;;;2.92;1.73;;;9.30;99.90;;;;;;5037427;28;20043;-70
2022/06/21 02:25:42;;;;;;;3.33;1.90;;;9.30;99.90;;;;;;5054209;28;20106;-70
2022/06/21 02:28:09;;;;;;;2.90;2.28;;;9.30;99.90;;;;;;5053407;28;20043;-69
2022/06/21 02:30:36;;;;;;;5.50;2.42;;;9.40;99.90;;;;;;5072126;28;20048;-70
2022/06/21 02:33:04;;;;;;;2.38;2.17;;;9.40;99.90;;;;;;5037261;28;20044;-69
2022/06/21 02:35:42;;;;;;;2.40;2.10;;;9.30;99.90;;;;;;5072213;28;20050;-69
2022/06/21 02:38:16;;;;;;;2.83;2.22;;;9.40;99.90;;;;;;5037395;28;20567;-70
2022/06/21 02:40:47;;;;;;;3.13;2.20;;;9.40;99.90;;;;;;5054178;28;20047;-70
2022/06/21 02:43:23;;;;;;;3.65;2.40;;;9.40;99.90;;;;;;5054080;28;20078;-70
2022/06/21 02:46:01;;;;;;;3.85;2.35;;;9.40;99.90;;;;;;5053739;28;20036;-70
2022/06/21 02:48:30;;;;;;;2.72;2.08;;;9.30;99.90;;;;;;5036854;28;20044;-70
2022/06/21 02:51:05;;;;;;;4.72;2.58;;;9.30;99.90;;;;;;5087530;28;20412;-69
2022/06/21 02:53:35;;;;;;;4.40;2.05;;;9.20;99.90;;;;;;5053574;28;20115;-70
2022/06/21 02:56:16;;;;;;;2.15;1.95;;;9.10;99.90;;;;;;5036890;28;20119;-70
2022/06/21 02:58:47;;;;;;;4.32;1.80;;;9.10;99.90;;;;;;5086936;28;20044;-70
2022/06/21 03:01:32;;;;;;;2.28;1.63;;;9.00;99.90;;;;;;5053324;28;20043;-70
2022/06/21 03:03:58;;;;;;;2.22;1.63;;;8.90;99.90;;;;;;5053643;28;20044;-70
2022/06/21 03:06:26;;;;;;;2.17;1.30;;;8.90;99.90;;;;;;5053223;28;20079;-70
2022/06/21 03:09:02;;;;;;;2.67;1.40;;;8.80;99.90;;;;;;5052829;28;20060;-70
2022/06/21 03:11:35;;;;;;;2.20;1.63;;;8.80;99.90;;;;;;5086670;28;20402;-70
2022/06/21 03:14:04;;;;;;;2.65;1.52;;;8.70;99.90;;;;;;5052891;28;20470;-70
2022/06/21 03:16:30;;;;;;;1.67;1.58;;;8.70;99.90;;;;;;5052787;28;20032;-69
2022/06/21 03:19:00;;;;;;;2.17;1.58;;;8.70;99.90;;;;;;5052936;28;20055;-70
2022/06/21 03:21:35;;;;;;;2.22;1.58;;;8.70;99.90;;;;;;5053298;28;20504;-70
2022/06/21 03:24:15;;;;;;;2.13;1.60;;;8.80;99.90;;;;;;5048437;22;20529;-72
2022/06/21 03:26:44;;;;;;;2.38;1.85;;;8.80;99.90;;;;;;5029706;28;20049;-72
2022/06/21 03:29:09;;;;;;;2.92;2.10;;;8.80;99.90;;;;;;5029413;28;20486;-72
2022/06/21 03:31:39;;;;;;;3.13;1.80;;;8.80;99.90;;;;;;5029757;28;20057;-72
2022/06/21 03:34:08;;;;;;;2.10;1.77;;;8.90;99.90;;;;;;5029799;28;20508;-72
2022/06/21 03:36:34;;;;;;;2.20;1.85;;;8.90;99.90;;;;;;5029724;28;20395;-72
2022/06/21 03:39:04;;;;;;;4.40;2.28;;;8.90;99.90;;;;;;5028455;28;20053;-72
2022/06/21 03:41:43;;;;;;;1.95;1.83;;;8.90;99.90;;;;;;5029503;28;20045;-72
2022/06/21 03:44:31;;;;;;;3.53;2.15;;;8.90;99.90;;;;;;5029268;28;20103;-72
2022/06/21 03:47:32;;;;;;;3.38;1.90;;;8.90;99.90;;;;;;5029543;28;20045;-72
2022/06/21 03:50:00;;;;;;;2.15;1.60;;;9.00;99.90;;;;;;5006883;28;20057;-72
2022/06/21 03:52:47;;;;;;;2.78;1.70;;;9.00;99.90;;;;;;5029220;28;20049;-71
2022/06/21 03:55:43;;;;;;;2.40;2.03;;;9.10;99.90;;;;;;5012856;28;20454;-72
2022/06/21 03:58:23;;;;;;;3.45;1.52;;;9.10;99.90;;;;;;5029212;28;20042;-72
2022/06/21 04:00:55;;;;;;;3.75;2.03;;;9.10;99.90;;;;;;5029331;28;20057;-72
2022/06/21 04:03:29;;;;;;;5.97;2.35;;;9.10;99.90;;;;;;5029082;28;20285;-72
2022/06/21 04:06:14;;;;;;;2.20;1.85;;;9.10;99.90;;;;;;5030273;28;20095;-72
2022/06/21 04:08:47;;;;;;;2.10;1.90;;;9.20;99.90;;;;;;5029043;28;20042;-72
2022/06/21 04:11:21;;;;;;;2.72;1.40;;;9.20;99.90;;;;;;5028932;28;20045;-72
2022/06/21 04:13:51;;;;;;;3.53;1.30;;;9.20;99.90;;;;;;5029342;28;20368;-72
2022/06/21 04:16:31;;;;;;;1.50;1.40;;;9.30;99.90;;;;;;5028873;28;20042;-72
2022/06/21 04:19:07;;;;;;;2.20;1.83;;;9.40;99.90;;;;;;5028930;28;20125;-72
2022/06/21 04:21:45;;;;;;;1.65;1.55;;;9.40;99.90;;;;;;5029121;28;20540;-72
2022/06/21 04:24:22;;;;;;;2.78;1.83;;;9.40;99.90;;;;;;5030024;28;20058;-72
2022/06/21 04:27:01;;;;;;;2.28;2.08;;;9.50;99.90;;;;;;5028683;28;20049;-72
2022/06/21 04:29:38;;;;;;;2.33;2.20;;;9.40;99.90;;;;;;5028833;28;20071;-72
2022/06/21 04:32:14;;;;;;;3.00;2.40;;;9.40;99.90;;;;;;5028795;28;20073;-72
2022/06/21 04:34:48;;;;;;;2.53;2.30;;;9.40;99.90;;;;;;5028810;28;20128;-72
2022/06/21 04:37:24;;;;;;;2.67;2.47;;;9.40;99.90;;;;;;5028712;28;20034;-72
2022/06/21 04:40:02;;;;;;;3.00;2.65;;;9.40;99.90;;;;;;5028740;28;20376;-72
2022/06/21 04:42:48;;;;;;;3.63;2.70;;;9.40;99.90;;;;;;5028784;28;20033;-72
2022/06/21 04:45:30;;;;;;;2.70;2.50;;;9.60;99.90;;;;;;5028545;28;20517;-72
2022/06/21 04:48:15;;;;;;;4.95;3.13;;;9.60;99.90;;;;;;5029055;28;20080;-72
2022/06/21 04:50:46;;;;;;;3.10;2.90;;;9.70;99.90;;;;;;5030917;28;20037;-72
2022/06/21 04:53:19;;;;;;;4.50;2.63;;;9.90;99.90;;;;;;5032627;28;20042;-73
2022/06/21 04:55:57;;;;;;;6.07;3.30;;;10.00;99.90;;;;;;5032324;28;20060;-72
2022/06/21 04:58:23;;;;;;;3.63;2.70;;;10.20;99.90;;;;;;5016184;28;20376;-71
2022/06/21 05:00:49;;;;;;;3.17;2.80;;;10.50;99.90;;;;;;5032471;28;20506;-71
2022/06/21 05:03:32;;;;;;;3.42;2.60;;;10.60;99.90;;;;;;5032349;28;20053;-72
2022/06/21 05:05:59;;;;;;;4.18;3.22;;;10.90;99.90;;;;;;5032462;28;20049;-72
2022/06/21 05:08:25;;;;;;;4.28;2.92;;;11.10;99.90;;;;;;5032403;28;20064;-72
2022/06/21 05:10:56;;;;;;;3.30;3.00;;;11.20;99.90;;;;;;5015611;28;20038;-71
2022/06/21 05:13:38;;;;;;;5.05;2.95;;;11.30;99.90;;;;;;5015656;28;20037;-72
2022/06/21 05:16:12;;;;;;;7.55;3.03;;;11.50;99.90;;;;;;5032278;28;20045;-71
2022/06/21 05:18:42;;;;;;;4.45;3.03;;;11.60;99.90;;;;;;5032108;28;20059;-72
2022/06/21 05:21:16;;;;;;;4.72;2.60;;;11.80;99.90;;;;;;5031968;28;20055;-72
2022/06/21 05:23:42;;;;;;;5.10;3.10;;;11.90;99.90;;;;;;5015327;28;20053;-71
2022/06/21 05:26:15;;;;;;;5.25;3.22;;;12.00;99.90;;;;;;5031726;28;20067;-72
2022/06/21 05:28:48;;;;;;;11.73;3.92;;;12.20;99.90;;;;;;5032007;28;20033;-73
2022/06/21 05:31:17;;;;;;;7.28;4.10;;;12.20;99.90;;;;;;5015199;28;20053;-73
2022/06/21 05:34:00;;;;;;;5.88;4.15;;;12.30;99.90;;;;;;5031785;28;20522;-73
2022/06/21 05:36:29;;;;;;;7.70;3.92;;;;;;;;;;5015132;28;20041;-71
2022/06/21 05:38:59;;;;;;;5.00;4.10;;;12.50;99.90;;;;;;5031732;28;20041;-72
2022/06/21 05:41:38;;;;;;;6.80;4.70;;;12.70;99.90;;;;;;5031714;28;20532;-72
2022/06/21 05:44:35;;;;;;;5.28;4.00;;;12.70;99.90;;;;;;5031654;28;20072;-73
2022/06/21 05:47:10;;;;;;;6.13;4.03;;;12.90;99.90;;;;;;5031523;28;20056;-73
2022/06/21 05:49:36;;;;;;;5.10;3.45;;;13.90;99.90;;;;;;5031762;28;20064;-73
2022/06/21 05:52:07;;;;;;;4.88;2.90;;;15.80;99.90;;;;;;5031587;28;20107;-73
2022/06/21 05:54:38;;;;;;;5.65;3.42;;;17.60;99.90;;;;;;5031465;28;20577;-73
2022/06/21 05:57:07;;;;;;;6.20;2.53;;;19.20;99.90;;;;;;5031417;28;20045;-73
2022/06/21 05:59:33;;;;;;;5.13;2.42;;;20.70;99.90;;;;;;5031613;28;20140;-72
2022/06/21 06:02:31;;;;;;;5.40;2.30;;;21.90;99.90;;;;;;5029991;28;20132;-73
2022/06/21 06:05:06;;;;;;;4.28;2.10;;;23.20;96.20;;;;;;5032624;28;20376;-72
2022/06/21 06:07:40;;;;;;;2.25;1.25;;;24.30;96.40;;;;;;5031024;28;20049;-73
2022/06/21 06:10:07;;;;;;;3.63;1.88;;;25.00;94.70;;;;;;5031410;28;20138;-72
2022/06/21 06:12:42;;;;;;;4.13;1.42;;;25.60;92.50;;;;;;5031072;28;20109;-73
2022/06/21 06:15:14;;;;;;;4.82;1.50;;;26.10;88.70;;;;;;5031029;28;20049;-73
2022/06/21 06:18:01;;;;;;;3.75;1.42;;;26.80;89.20;;;;;;5014378;28;20085;-74
2022/06/21 06:20:56;;;;;;;7.80;1.35;;;27.00;78.10;;;;;;5014381;28;20065;-73
2022/06/21 06:24:07;;;;;;;4.38;1.40;;;26.90;77.90;;;;;;5030736;28;20057;-74
2022/06/21 06:26:36;;;;;;;2.80;1.15;;;;;;;;;;4993191;28;20052;-74
2022/06/21 06:29:15;;;;;;;4.50;1.35;;;;;;;;;;5026238;28;20103;-74
2022/06/21 06:32:11;;;;;;;2.75;1.05;;;27.70;78.20;;;;;;5030957;28;20041;-74
2022/06/21 06:34:39;;;;;;;6.47;1.48;;;;;;;;;;5030700;28;20044;-72
2022/06/21 06:37:12;;;;;;;3.78;1.17;;;28.50;67.00;;;;;;5030487;28;20037;-74
2022/06/21 06:39:38;;;;;;;4.82;1.30;;;28.50;68.50;;;;;;5030566;28;20138;-73
2022/06/21 06:42:12;;;;;;;5.80;1.50;;;28.50;69.80;;;;;;5030810;28;20076;-74
2022/06/21 06:44:42;;;;;;;3.80;1.35;;;28.00;66.20;;;;;;5014186;28;20041;-73
2022/06/21 06:47:14;;;;;;;4.57;1.23;;;25.30;67.40;;;;;;5030256;28;20067;-73
2022/06/21 06:50:09;;;;;;;3.65;1.30;;;24.50;69.80;;;;;;5030430;28;20395;-73
2022/06/21 06:52:41;;;;;;;3.38;1.60;;;22.80;74.10;;;;;;5030309;28;20427;-73
2022/06/21 06:55:26;;;;;;;7.03;1.42;;;24.10;75.30;;;;;;5030173;28;20049;-73
2022/06/21 06:58:01;;;;;;;3.60;1.25;;;25.50;75.10;;;;;;5030028;28;20132;-73
2022/06/21 07:00:35;;;;;;;7.90;1.73;;;26.80;72.40;;;;;;5030508;28;20144;-73
2022/06/21 07:03:06;;;;;;;3.17;1.40;;;25.90;68.90;;;;;;5029977;28;20076;-72
2022/06/21 07:05:58;;;;;;;5.43;1.75;;;26.60;68.00;;;;;;5030209;28;20148;-73
2022/06/21 07:08:35;;;;;;;3.55;1.42;;;26.50;66.40;;;;;;5029971;28;20049;-73
2022/06/21 07:11:05;;;;;;;3.10;1.30;;;26.70;68.70;;;;;;5031467;28;20507;-73
2022/06/21 07:13:32;;;;;;;3.55;1.40;;;26.90;67.10;;;;;;5029886;28;20425;-73
2022/06/21 07:16:08;;;;;;;3.78;1.40;;;27.80;67.50;;;;;;5029843;28;20099;-74
2022/06/21 07:18:46;;;;;;;3.88;1.75;;;28.10;66.40;;;;;;5029659;28;20045;-73
2022/06/21 07:21:13;;;;;;;4.32;1.35;;;27.70;64.50;;;;;;5030113;28;20063;-73
2022/06/21 07:23:40;;;;;;;5.35;1.35;;;27.40;66.30;;;;;;5029608;28;20053;-74
2022/06/21 07:26:18;;;;;;;4.70;1.40;;;27.30;66.70;;;;;;5029668;28;20064;-74
2022/06/21 07:28:51;;;;;;;5.72;1.58;;;28.00;67.10;;;;;;5029514;28;20124;-72
2022/06/21 07:31:25;;;;;;;6.07;1.83;;;28.70;65.40;;;;;;5029655;28;20044;-73
2022/06/21 07:34:18;;;;;;;5.68;1.70;;;28.20;63.90;;;;;;5031007;28;20080;-73
2022/06/21 07:37:20;;;;;;;3.65;1.70;;;27.10;64.70;;;;;;5029675;28;20045;-73
2022/06/21 07:40:02;;;;;;;;;;;27.00;65.90;;;;;;5030156;28;20067;-73
2022/06/21 07:42:49;;;;;;;3.80;1.80;;;27.40;64.10;;;;;;5029437;28;19928;-73
2022/06/21 07:45:34;;;;;;;3.92;1.50;;;28.30;64.10;;;;;;5029177;28;20657;-73
2022/06/21 07:48:06;;;;;;;4.03;1.48;;;29.10;63.80;;;;;;5029668;28;20443;-74
2022/06/21 07:50:42;;;;;;;3.67;1.30;;;29.50;62.20;;;;;;5029314;28;20044;-73
2022/06/21 07:53:33;;;;;;;3.97;1.60;;;29.30;60.40;;;;;;5029262;28;20527;-73
2022/06/21 07:56:03;;;;;;;;;;;29.60;60.80;;;;;;5029772;28;20108;-74
2022/06/21 07:58:40;;;;;;;4.38;1.25;;;30.00;61.80;;;;;;5029061;28;19917;-74
2022/06/21 08:07:37;;;;;;;2.70;1.25;;;28.30;59.10;;;;;;5012506;28;20057;-74
2022/06/21 08:10:32;;;;;;;2.92;1.27;;;27.70;60.00;;;;;;5012908;28;20053;-74
2022/06/21 08:12:57;;;;;;;5.38;1.30;;;26.50;61.40;;;;;;5024940;28;20049;-73
2022/06/21 08:15:37;;;;;;;3.60;1.60;;;26.10;63.20;;;;;;5028937;28;20068;-73
2022/06/21 08:18:27;;;;;;;3.58;1.20;;;25.10;63.90;;;;;;5029439;28;20045;-73
2022/06/21 08:20:59;;;;;;;3.75;1.20;;;24.80;66.50;;;;;;5012564;28;20061;-73
2022/06/21 08:23:34;;;;;;;5.45;1.58;;;24.50;66.90;;;;;;5029200;28;20399;-71
2022/06/21 08:26:07;;;;;;;4.72;1.50;;;24.10;68.70;;;;;;5031842;28;20056;-73
2022/06/21 08:28:40;;;;;;;6.05;2.20;;;23.50;68.60;;;;;;5033025;28;20045;-72
2022/06/21 08:31:30;;;;;;;7.10;2.58;;;23.50;68.20;;;;;;5034245;28;20063;-72
2022/06/21 08:34:23;;;;;;;2.60;1.60;;;23.40;70.00;;;;;;5027061;28;20136;-72
2022/06/21 08:37:00;;;;;;;3.47;1.45;;;23.30;71.30;;;;;;5032865;28;20080;-73
2022/06/21 08:39:34;;;;;;;3.10;1.40;;;23.10;70.90;;;;;;5016298;28;20498;-73
2022/06/21 08:42:24;;;;;;;3.78;1.63;;;22.90;71.40;;;;;;5016599;28;20049;-73
2022/06/21 08:48:47;;;;;;;4.75;1.40;;;22.10;72.40;;;;;;5032936;28;20041;-73
2022/06/21 08:51:35;;;;;;;5.40;1.88;;;22.30;71.40;;;;;;4994987;28;20038;-73
2022/06/21 08:54:29;;;;;;;4.97;1.60;;;21.50;73.70;;;;;;4994965;28;20038;-73
2022/06/21 08:57:21;;;;;;;2.53;1.40;;;21.10;75.50;;;;;;5024973;28;20052;-72
2022/06/21 09:00:05;;;;;;;1.77;1.30;;;21.40;75.00;;;;;;5032506;28;20045;-73
2022/06/21 09:03:05;;;;;;;4.38;1.60;;;21.30;73.60;;;;;;5032497;28;20037;-73
2022/06/21 09:05:49;;;;;;;4.03;1.50;;;21.30;73.80;;;;;;5032256;28;20127;-73
2022/06/21 09:08:37;;;;;;;5.32;1.90;;;21.10;74.00;;;;;;5015919;28;20041;-73
2022/06/21 09:11:03;;;;;;;2.65;1.45;;;21.10;75.70;;;;;;5031995;28;20079;-73
2022/06/21 09:13:47;;;;;;;4.13;1.95;;;21.20;75.20;;;;;;5032203;28;20406;-73
2022/06/21 09:16:26;;;;;;;6.55;1.98;;;21.10;76.30;;;;;;5032041;28;20045;-73
2022/06/21 09:19:26;;;;;;;4.03;1.58;;;20.80;76.50;;;;;;5015598;28;20061;-73
2022/06/21 09:22:42;;;;;;;3.67;1.48;;;20.90;76.70;;;;;;5032326;28;20106;-73
2022/06/21 09:25:32;;;;;;;4.20;1.60;;;21.10;77.80;;;;;;5000554;28;20053;-73
2022/06/21 09:28:26;;;;;;;5.25;1.63;;;21.30;78.20;;;;;;5012189;28;20503;-74
2022/06/21 09:31:20;;;;;;;2.80;1.23;;;21.50;77.50;;;;;;5011588;28;20061;-73
2022/06/21 09:34:19;;;;;;;4.22;1.48;;;21.70;74.80;;;;;;5012631;28;20502;-73
2022/06/21 09:37:04;;;;;;;3.80;1.50;;;21.90;73.00;;;;;;5013922;28;20061;-73
2022/06/21 09:39:51;;;;;;;4.72;1.55;;;21.90;74.30;;;;;;5012026;28;20046;-73
2022/06/21 09:42:32;;;;;;;4.25;1.33;;;21.90;73.60;;;;;;5012066;28;20060;-72
2022/06/21 09:45:31;;;;;;;4.20;1.48;;;21.90;73.30;;;;;;5011645;28;20049;-73
2022/06/21 09:47:56;;;;;;;4.40;1.30;;;21.70;73.60;;;;;;5011861;28;20045;-72
2022/06/21 09:50:37;;;;;;;4.65;1.40;;;21.00;75.10;;;;;;5011945;28;20057;-72
2022/06/21 09:53:18;;;;;;;4.50;2.70;;;20.90;75.90;;;;;;5011694;28;20046;-73
2022/06/21 09:56:02;;;;;;;3.90;1.60;;;21.30;76.40;;;;;;4995239;28;20137;-73
2022/06/21 09:58:42;;;;;;;4.03;1.50;;;21.50;73.90;;;;;;4995275;28;20054;-73
2022/06/21 10:01:20;;;;;;;4.32;1.40;;;21.60;75.30;;;;;;4995087;28;20050;-73
2022/06/21 10:04:02;;;;;;;6.00;1.35;;;21.70;74.60;;;;;;5011623;28;20049;-73
2022/06/21 10:06:56;;;;;;;6.38;1.33;;;21.90;73.70;;;;;;5011340;28;20050;-73
2022/06/21 10:09:51;;;;;;;3.40;1.27;;;21.90;74.50;;;;;;4995180;28;20046;-73
2022/06/21 10:12:46;;;;;;;4.13;1.30;;;21.70;73.60;;;;;;4995114;28;20046;-73
2022/06/21 10:15:33;;;;;;;2.97;0.93;;;21.70;74.00;;;;;;5011329;28;20152;-73
2022/06/21 10:18:21;;;;;;;3.35;1.23;;;22.10;73.70;;;;;;5011378;28;20073;-73
2022/06/21 10:21:07;;;;;;;3.53;1.23;;;22.60;72.00;;;;;;5011543;28;20056;-73
2022/06/21 10:24:03;;;;;;;3.35;1.20;;;22.70;72.10;;;;;;5015964;28;20087;-74
2022/06/21 10:27:06;;;;;;;2.55;1.30;;;22.60;72.30;;;;;;5030633;28;20064;-74
2022/06/21 10:29:50;;;;;;;2.95;1.60;;;22.60;70.10;;;;;;5014339;28;20029;-72
2022/06/21 10:32:31;;;;;;;4.68;1.13;;;21.90;70.50;;;;;;5030837;28;20091;-72
2022/06/21 10:35:19;;;;;;;4.30;1.33;;;22.20;72.60;;;;;;5031057;28;20041;-73
2022/06/21 10:38:11;;;;;;;3.17;1.20;;;22.50;72.50;;;;;;5030645;28;20367;-73
2022/06/21 10:40:55;;;;;;;;;;;22.40;68.90;;;;;;5030914;28;20037;-72
2022/06/21 10:43:39;;;;;;;3.08;1.02;;;22.00;71.50;;;;;;5030744;28;19917;-73
2022/06/21 10:46:04;;;;;;;3.03;1.08;;;22.60;71.10;;;;;;5030582;28;20045;-73
2022/06/21 10:48:51;;;;;;;2.40;1.17;;;22.70;72.30;;;;;;5029834;28;20052;-73
2022/06/21 10:51:16;;;;;;;4.35;1.40;;;22.90;71.50;;;;;;5013892;28;20110;-73
2022/06/21 10:53:59;;;;;;;4.07;1.17;;;22.70;71.50;;;;;;5030597;28;20535;-73
2022/06/21 10:57:09;;;;;;;5.57;1.55;;;22.80;72.10;;;;;;5030248;28;20044;-73
2022/06/21 11:02:50;;;;;;;3.90;1.20;;;22.90;71.60;;;;;;5030072;28;20132;-72
2022/06/21 11:05:23;;;;;;;4.05;1.42;;;22.80;71.40;;;;;;5013608;28;20129;-73
2022/06/21 11:07:49;;;;;;;3.10;1.30;;;22.40;70.70;;;;;;5030252;28;20050;-73
2022/06/21 11:10:23;;;;;;;2.97;1.02;;;22.30;70.40;;;;;;5030276;28;20514;-73
2022/06/21 11:13:04;;;;;;;5.30;1.30;;;22.50;72.50;;;;;;5013734;28;20045;-73
2022/06/21 11:15:41;;;;;;;2.65;1.20;;;22.10;69.10;;;;;;5030055;28;20053;-73
2022/06/21 11:18:10;;;;;;;3.47;1.30;;;22.40;71.20;;;;;;5013510;28;20136;-73
2022/06/21 11:20:57;;;;;;;3.47;1.10;;;22.60;72.30;;;;;;5029862;28;20088;-73
2022/06/21 11:24:05;;;;;;;3.00;1.02;;;22.70;71.60;;;;;;5029500;28;20518;-73
2022/06/21 11:27:00;;;;;;;2.83;1.13;;;22.70;69.70;;;;;;5029927;28;20045;-73
2022/06/21 11:29:54;;;;;;;3.30;0.95;;;22.90;70.90;;;;;;5029993;28;20091;-73
2022/06/21 11:32:31;;;;;;;2.25;1.00;;;23.00;71.00;;;;;;5029464;28;20037;-73
2022/06/21 11:35:13;;;;;;;2.60;1.10;;;23.10;71.70;;;;;;5013102;28;20056;-73
2022/06/21 11:37:57;;;;;;;;;;;21.90;69.50;;;;;;5013442;28;20053;-73
2022/06/21 11:40:39;;;;;;;4.00;1.25;;;22.20;70.60;;;;;;5029774;28;20283;-73
2022/06/21 11:43:27;;;;;;;2.55;1.20;;;22.50;72.40;;;;;;5029410;28;20128;-73
2022/06/21 11:46:05;;;;;;;2.03;1.05;;;22.80;69.20;;;;;;5029498;28;20041;-72
2022/06/21 11:48:52;;;;;;;3.42;1.25;;;22.70;69.30;;;;;;5029274;28;20037;-72
2022/06/21 11:51:56;;;;;;;2.45;1.02;;;22.90;71.00;;;;;;5013115;28;20118;-72
2022/06/21 11:54:44;;;;;;;2.90;1.20;;;23.00;69.20;;;;;;5029144;28;20042;-73
2022/06/21 11:57:21;;;;;;;2.53;0.95;;;23.10;66.00;;;;;;5029214;28;20053;-73
2022/06/21 12:00:05;;;;;;;4.78;1.02;;;23.20;69.50;;;;;;5028624;28;20390;-73
2022/06/21 12:02:44;;;;;;;3.30;1.00;;;22.60;65.70;;;;;;5029295;28;20045;-73
2022/06/21 12:05:42;;;;;;;3.55;1.30;;;22.60;68.40;;;;;;5029381;28;20116;-73
2022/06/21 12:08:23;;;;;;;3.08;1.10;;;22.80;69.00;;;;;;5028884;28;20033;-73
2022/06/21 12:10:51;;;;;;;3.15;1.10;;;22.80;66.80;;;;;;5029138;28;20511;-73
2022/06/21 12:13:38;;;;;;;5.18;1.60;;;22.80;68.70;;;;;;5028949;28;20045;-73
2022/06/21 12:16:24;;;;;;;2.72;1.17;;;23.00;69.70;;;;;;5029230;28;20436;-72
2022/06/21 12:19:03;;;;;;;2.10;1.00;;;23.10;70.30;;;;;;5012227;28;20057;-72
2022/06/21 12:21:35;;;;;;;2.63;1.20;;;23.20;71.20;;;;;;5029301;28;20053;-73
2022/06/21 12:24:12;;;;;;;2.45;1.27;;;23.10;67.90;;;;;;5028539;28;20499;-73
2022/06/21 12:26:38;;;;;;;2.92;1.10;;;22.70;67.50;;;;;;5028897;28;20049;-73
2022/06/21 12:29:13;;;;;;;2.72;0.98;;;22.70;68.30;;;;;;5028974;28;20395;-73
2022/06/21 12:31:44;;;;;;;3.58;1.10;;;22.10;65.90;;;;;;5028921;28;20077;-72
2022/06/21 12:34:15;;;;;;;2.47;1.20;;;22.00;66.80;;;;;;5028886;28;20041;-73
2022/06/21 12:36:48;;;;;;;3.43;1.10;;;22.20;68.80;;;;;;5012394;28;20045;-72
2022/06/21 12:39:13;;;;;;;1.83;1.10;;;22.50;68.70;;;;;;5028900;28;20125;-72
2022/06/21 12:41:57;;;;;;;1.42;1.20;;;22.50;68.90;;;;;;5028715;28;20546;-72
2022/06/21 12:44:48;;;;;;;3.30;1.08;;;22.60;69.50;;;;;;5028741;28;20081;-72
2022/06/21 12:47:32;;;;;;;2.17;1.05;;;22.90;67.60;;;;;;5028705;28;20041;-73
2022/06/21 12:50:25;;;;;;;4.95;1.10;;;22.50;67.70;;;;;;5028403;28;20080;-73
2022/06/21 12:53:14;;;;;;;3.10;1.27;;;22.70;68.90;;;;;;5028725;28;20047;-73
2022/06/21 12:56:01;;;;;;;1.95;0.93;;;23.00;69.70;;;;;;5012259;28;20076;-74
2022/06/21 12:59:11;;;;;;;3.83;1.02;;;23.30;65.90;;;;;;5028774;28;20130;-74
2022/06/21 13:01:54;;;;;;;2.90;1.10;;;23.20;66.50;;;;;;5028935;28;20471;-72
2022/06/21 13:04:39;;;;;;;2.85;0.90;;;23.60;67.90;;;;;;5028428;28;20045;-73
2022/06/21 13:07:31;;;;;;;1.80;0.95;;;23.70;66.00;;;;;;5028537;28;20076;-73
2022/06/21 13:10:16;;;;;;;;;;;23.60;65.50;;;;;;5012500;28;20038;-73
2022/06/21 13:13:06;;;;;;;3.38;0.98;;;22.90;66.80;;;;;;5032136;28;19949;-72
2022/06/21 13:16:07;;;;;;;2.85;1.15;;;23.20;67.50;;;;;;5032120;28;20511;-72
2022/06/21 13:18:51;;;;;;;4.13;1.17;;;23.30;66.70;;;;;;5032162;28;20056;-73
2022/06/21 13:21:46;;;;;;;1.65;0.90;;;23.30;67.60;;;;;;5032098;28;20284;-73
2022/06/21 13:24:26;;;;;;;3.10;1.08;;;23.60;70.10;;;;;;5024183;28;20256;-73
2022/06/21 13:26:53;;;;;;;1.57;0.97;;;23.50;68.70;;;;;;5031961;28;20085;-73
2022/06/21 13:29:33;;;;;;;3.72;1.50;;;23.80;70.60;;;;;;5015191;28;20041;-73
2022/06/21 13:32:03;;;;;;;3.15;0.82;;;24.00;70.70;;;;;;5031969;28;20627;-73
2022/06/21 13:34:53;;;;;;;2.17;1.20;;;24.20;70.40;;;;;;5033018;28;20055;-72
2022/06/21 13:37:37;;;;;;;3.00;1.20;;;24.40;68.40;;;;;;5031772;28;20096;-72
2022/06/21 13:40:14;;;;;;;3.72;1.20;;;24.50;66.50;;;;;;5015299;28;20069;-72
2022/06/21 13:42:55;;;;;;;2.75;0.85;;;24.80;64.70;;;;;;5031655;28;20050;-72
2022/06/21 13:45:35;;;;;;;2.63;0.95;;;25.10;66.30;;;;;;5014966;28;20065;-72
2022/06/21 13:48:10;;;;;;;2.38;0.93;;;25.50;67.60;;;;;;5031628;28;20128;-72
2022/06/21 13:50:41;;;;;;;1.80;0.85;;;25.40;66.40;;;;;;5014943;28;20045;-72
2022/06/21 13:53:17;;;;;;;;;;;25.60;65.50;;;;;;5031966;28;20042;-72
2022/06/21 13:55:46;;;;;;;3.75;1.23;;;25.60;66.40;;;;;;5014815;28;19917;-72
2022/06/21 13:58:18;;;;;;;2.55;1.10;;;25.20;63.00;;;;;;5014774;28;20037;-72
2022/06/21 14:00:59;;;;;;;2.55;0.70;;;25.30;65.20;;;;;;5031174;28;20088;-72
2022/06/21 14:04:02;;;;;;;1.85;1.02;;;25.30;64.00;;;;;;5031281;28;20041;-72